createdAt,value
2022-10-03T00:01:15.691Z,12.69
2022-10-03T00:02:38.793Z,12.70
2022-10-03T00:03:57.485Z,12.68
2022-10-03T00:05:11.514Z,12.67
2022-10-03T00:06:16.742Z,12.65
2022-10-03T00:07:37.492Z,12.65
2022-10-03T00:08:57.412Z,12.64
2022-10-03T00:10:12.431Z,12.63
2022-10-03T00:11:27.999Z,12.62
2022-10-03T00:12:47.261Z,12.61
2022-10-03T00:17:20.626Z,12.57
2022-10-03T00:18:36.464Z,12.57
2022-10-03T00:21:03.858Z,12.55
2022-10-03T00:22:18.860Z,12.53
2022-10-03T00:23:25.258Z,12.53
2022-10-03T00:25:46.285Z,12.51
2022-10-03T00:26:52.628Z,12.49
2022-10-03T00:28:10.861Z,12.49
2022-10-03T00:29:31.156Z,12.48
2022-10-03T00:30:50.901Z,12.46
2022-10-03T00:32:06.199Z,12.45
2022-10-03T00:33:19.728Z,12.44
2022-10-03T00:34:29.905Z,12.43
2022-10-03T00:35:50.854Z,12.41
2022-10-03T00:37:08.427Z,12.40
2022-10-03T00:38:28.901Z,12.39
2022-10-03T00:39:46.054Z,12.39
2022-10-03T00:41:11.409Z,12.38
2022-10-03T00:43:08.206Z,12.38
2022-10-03T00:44:47.271Z,12.36
2022-10-03T00:46:32.345Z,12.36
2022-10-03T00:48:08.989Z,12.34
2022-10-03T00:49:52.640Z,12.34
2022-10-03T00:51:11.324Z,12.32
2022-10-03T00:52:31.278Z,12.30
2022-10-03T00:53:47.391Z,12.30
2022-10-03T00:55:02.508Z,12.29
2022-10-03T00:56:21.567Z,12.30
2022-10-03T00:57:51.499Z,12.29
2022-10-03T00:59:06.815Z,12.27
2022-10-03T01:00:19.578Z,12.27
2022-10-03T01:01:30.170Z,12.27
2022-10-03T01:02:46.831Z,12.26
2022-10-03T01:04:00.325Z,12.26
2022-10-03T01:05:12.958Z,12.26
2022-10-03T01:06:27.029Z,12.25
2022-10-03T01:07:56.276Z,12.25
2022-10-03T01:09:18.733Z,12.24
2022-10-03T01:10:29.673Z,12.24
2022-10-03T01:11:47.751Z,12.22
2022-10-03T01:13:04.715Z,12.22
2022-10-03T01:14:23.061Z,12.20
2022-10-03T01:15:34.562Z,12.19
2022-10-03T01:16:52.170Z,12.17
2022-10-03T01:18:10.104Z,12.18
2022-10-03T01:19:33.523Z,12.15
2022-10-03T01:20:46.614Z,12.15
2022-10-03T01:22:41.980Z,12.15
2022-10-03T01:24:15.737Z,12.13
2022-10-03T01:25:19.672Z,12.13
2022-10-03T01:26:50.573Z,12.12
2022-10-03T01:28:19.421Z,12.09
2022-10-03T01:29:50.313Z,12.10
2022-10-03T01:30:56.704Z,12.08
2022-10-03T01:32:05.227Z,12.08
2022-10-03T01:33:13.951Z,12.08
2022-10-03T01:34:24.123Z,12.08
2022-10-03T01:35:37.410Z,12.08
2022-10-03T01:36:49.825Z,12.08
2022-10-03T01:38:01.717Z,12.08
2022-10-03T01:39:14.853Z,12.07
2022-10-03T01:40:27.182Z,12.07
2022-10-03T01:41:36.920Z,12.07
2022-10-03T01:42:54.777Z,12.07
2022-10-03T01:44:02.299Z,12.05
2022-10-03T01:45:15.537Z,12.05
2022-10-03T01:46:21.620Z,12.04
2022-10-03T01:47:32.235Z,12.04
2022-10-03T01:48:43.714Z,12.02
2022-10-03T01:49:55.438Z,12.02
2022-10-03T01:51:04.835Z,12.01
2022-10-03T01:52:16.616Z,12.02
2022-10-03T01:53:28.064Z,12.01
2022-10-03T01:54:37.790Z,12.02
2022-10-03T01:55:50.690Z,12.01
2022-10-03T01:56:58.401Z,12.01
2022-10-03T01:58:07.713Z,12.00
2022-10-03T01:59:17.962Z,11.99
2022-10-03T02:00:25.820Z,11.99
2022-10-03T02:01:35.453Z,11.99
2022-10-03T02:02:46.131Z,11.99
2022-10-03T02:03:56.394Z,11.98
2022-10-03T02:05:06.829Z,11.99
2022-10-03T02:06:20.590Z,12.00
2022-10-03T02:07:28.400Z,12.02
2022-10-03T02:08:51.763Z,12.01
2022-10-03T02:10:07.009Z,12.03
2022-10-03T02:11:12.305Z,12.03
2022-10-03T02:12:23.912Z,12.05
2022-10-03T02:13:31.785Z,12.05
2022-10-03T02:14:45.889Z,12.05
2022-10-03T02:16:02.492Z,12.06
2022-10-03T02:17:09.690Z,12.06
2022-10-03T02:18:17.733Z,12.04
2022-10-03T02:19:24.292Z,12.02
2022-10-03T02:20:37.148Z,12.00
2022-10-03T02:21:48.114Z,11.99
2022-10-03T02:22:54.839Z,11.99
2022-10-03T02:24:26.665Z,11.97
2022-10-03T02:25:52.061Z,11.95
2022-10-03T02:27:13.655Z,11.93
2022-10-03T02:28:44.853Z,11.90
2022-10-03T02:30:13.591Z,11.90
2022-10-03T02:31:38.906Z,11.87
2022-10-03T02:33:44.303Z,11.87
2022-10-03T02:35:10.389Z,11.85
2022-10-03T02:36:49.447Z,11.82
2022-10-03T02:38:34.894Z,11.81
2022-10-03T02:40:00.525Z,11.78
2022-10-03T02:41:20.203Z,11.78
2022-10-03T02:43:10.395Z,11.77
2022-10-03T02:44:41.231Z,11.75
2022-10-03T02:46:10.778Z,11.73
2022-10-03T02:47:42.033Z,11.71
2022-10-03T02:49:12.689Z,11.71
2022-10-03T02:51:49.980Z,11.68
2022-10-03T02:53:09.920Z,11.67
2022-10-03T02:54:45.569Z,11.67
2022-10-03T02:57:30.979Z,11.65
2022-10-03T02:59:00.533Z,11.64
2022-10-03T03:00:09.682Z,11.63
2022-10-03T03:01:48.221Z,11.64
2022-10-03T03:03:37.350Z,11.62
2022-10-03T03:05:22.280Z,11.62
2022-10-03T03:06:43.785Z,11.61
2022-10-03T03:08:09.296Z,11.61
2022-10-03T03:09:34.822Z,11.62
2022-10-03T03:10:59.605Z,11.64
2022-10-03T03:12:41.266Z,11.65
2022-10-03T03:14:19.057Z,11.68
2022-10-03T03:16:02.514Z,11.71
2022-10-03T03:17:16.327Z,11.73
2022-10-03T03:18:30.312Z,11.76
2022-10-03T03:20:17.630Z,11.79
2022-10-03T03:21:29.407Z,11.84
2022-10-03T03:22:46.051Z,11.87
2022-10-03T03:24:01.388Z,11.89
2022-10-03T03:25:33.246Z,11.92
2022-10-03T03:26:55.763Z,11.95
2022-10-03T03:28:11.990Z,11.97
2022-10-03T03:29:24.248Z,12.00
2022-10-03T03:30:37.380Z,12.00
2022-10-03T03:31:48.940Z,11.99
2022-10-03T03:33:07.823Z,11.99
2022-10-03T03:34:19.005Z,12.01
2022-10-03T03:35:33.280Z,12.01
2022-10-03T03:36:41.388Z,12.04
2022-10-03T03:37:52.285Z,12.04
2022-10-03T03:39:04.297Z,12.06
2022-10-03T03:40:29.546Z,12.08
2022-10-03T03:41:46.570Z,12.08
2022-10-03T03:43:12.358Z,12.09
2022-10-03T03:44:46.254Z,12.08
2022-10-03T03:46:00.241Z,12.09
2022-10-03T03:47:22.803Z,12.10
2022-10-03T03:49:02.058Z,12.10
2022-10-03T03:50:23.381Z,12.12
2022-10-03T03:51:34.347Z,12.13
2022-10-03T03:52:49.874Z,12.14
2022-10-03T03:54:19.452Z,12.16
2022-10-03T03:55:52.630Z,12.15
2022-10-03T03:57:14.506Z,12.14
2022-10-03T03:58:30.916Z,12.13
2022-10-03T03:59:47.752Z,12.11
2022-10-03T04:01:08.517Z,12.09
2022-10-03T04:02:28.949Z,12.09
2022-10-03T04:03:43.203Z,12.07
2022-10-03T04:05:07.900Z,12.06
2022-10-03T04:06:36.419Z,12.07
2022-10-03T04:07:50.320Z,12.09
2022-10-03T04:09:09.946Z,12.08
2022-10-03T04:10:22.636Z,12.10
2022-10-03T04:11:31.499Z,12.11
2022-10-03T04:12:53.956Z,12.13
2022-10-03T04:14:19.145Z,12.15
2022-10-03T04:15:39.050Z,12.16
2022-10-03T04:17:13.892Z,12.18
2022-10-03T04:18:51.286Z,12.18
2022-10-03T04:20:13.373Z,12.19
2022-10-03T04:21:31.092Z,12.19
2022-10-03T04:22:53.672Z,12.18
2022-10-03T04:24:19.707Z,12.18
2022-10-03T04:25:41.019Z,12.18
2022-10-03T04:27:03.854Z,12.18
2022-10-03T04:28:36.051Z,12.21
2022-10-03T04:29:44.226Z,12.21
2022-10-03T04:30:56.854Z,12.23
2022-10-03T04:32:14.982Z,12.27
2022-10-03T04:33:32.588Z,12.28
2022-10-03T04:34:47.930Z,12.30
2022-10-03T04:36:22.934Z,12.31
2022-10-03T04:37:40.222Z,12.33
2022-10-03T04:38:51.090Z,12.34
2022-10-03T04:40:09.274Z,12.34
2022-10-03T04:41:23.312Z,12.35
2022-10-03T04:42:40.936Z,12.36
2022-10-03T04:43:52.357Z,12.37
2022-10-03T04:45:06.059Z,12.35
2022-10-03T04:46:23.270Z,12.35
2022-10-03T04:47:34.003Z,12.33
2022-10-03T04:48:39.829Z,12.33
2022-10-03T04:49:48.778Z,12.32
2022-10-03T04:51:03.514Z,12.29
2022-10-03T04:52:16.552Z,12.27
2022-10-03T04:53:40.909Z,12.27
2022-10-03T04:54:52.789Z,12.25
2022-10-03T04:56:00.819Z,12.24
2022-10-03T04:57:12.465Z,12.23
2022-10-03T04:58:23.241Z,12.23
2022-10-03T04:59:35.383Z,12.23
2022-10-03T05:00:49.536Z,12.23
2022-10-03T05:01:56.780Z,12.25
2022-10-03T05:03:06.243Z,12.27
2022-10-03T05:04:23.111Z,12.28
2022-10-03T05:05:58.225Z,12.31
2022-10-03T05:07:10.915Z,12.33
2022-10-03T05:08:29.828Z,12.34
2022-10-03T05:09:41.103Z,12.34
2022-10-03T05:10:57.265Z,12.36
2022-10-03T05:12:08.402Z,12.35
2022-10-03T05:13:17.018Z,12.36
2022-10-03T05:14:28.881Z,12.37
2022-10-03T05:15:35.957Z,12.37
2022-10-03T05:16:43.512Z,12.39
2022-10-03T05:17:55.645Z,12.38
2022-10-03T05:19:24.029Z,12.38
2022-10-03T05:20:43.090Z,12.38
2022-10-03T05:21:49.743Z,12.40
2022-10-03T05:23:02.021Z,12.39
2022-10-03T05:24:24.238Z,12.41
2022-10-03T05:25:34.020Z,12.40
2022-10-03T05:26:47.230Z,12.40
2022-10-03T05:27:59.205Z,12.39
2022-10-03T05:29:11.279Z,12.39
2022-10-03T05:30:19.803Z,12.41
2022-10-03T05:31:30.360Z,12.40
2022-10-03T05:32:41.624Z,12.41
2022-10-03T05:33:50.868Z,12.41
2022-10-03T05:35:08.368Z,12.41
2022-10-03T05:36:19.839Z,12.43
2022-10-03T05:37:43.949Z,12.43
2022-10-03T05:39:35.134Z,12.46
2022-10-03T05:40:44.036Z,12.47
2022-10-03T05:42:17.809Z,12.47
2022-10-03T05:43:29.080Z,12.48
2022-10-03T05:44:42.399Z,12.49
2022-10-03T05:45:55.034Z,12.48
2022-10-03T05:47:01.059Z,12.47
2022-10-03T05:48:19.929Z,12.48
2022-10-03T05:49:44.047Z,12.50
2022-10-03T05:51:20.224Z,12.49
2022-10-03T05:52:43.411Z,12.50
2022-10-03T05:54:18.226Z,12.48
2022-10-03T05:55:33.891Z,12.49
2022-10-03T05:56:58.046Z,12.48
2022-10-03T05:58:22.638Z,12.47
2022-10-03T05:59:43.344Z,12.49
2022-10-03T06:01:09.876Z,12.47
2022-10-03T06:02:44.935Z,12.48
2022-10-03T06:04:14.509Z,12.48
2022-10-03T06:05:29.515Z,12.49
2022-10-03T06:06:43.493Z,12.51
2022-10-03T06:08:02.871Z,12.52
2022-10-03T06:09:24.964Z,12.53
2022-10-03T06:10:47.039Z,12.54
2022-10-03T06:12:11.001Z,12.55
2022-10-03T06:13:20.291Z,12.56
2022-10-03T06:14:34.732Z,12.58
2022-10-03T06:15:54.191Z,12.59
2022-10-03T06:17:10.270Z,12.60
2022-10-03T06:18:38.526Z,12.60
2022-10-03T06:19:49.666Z,12.62
2022-10-03T06:21:19.369Z,12.62
2022-10-03T06:23:05.785Z,12.63
2022-10-03T06:24:38.370Z,12.64
2022-10-03T06:26:15.340Z,12.64
2022-10-03T06:27:55.195Z,12.64
2022-10-03T06:29:30.923Z,12.64
2022-10-03T06:30:53.405Z,12.64
2022-10-03T06:32:29.014Z,12.62
2022-10-03T06:34:22.390Z,12.63
2022-10-03T06:35:53.884Z,12.63
2022-10-03T06:37:16.315Z,12.64
2022-10-03T06:39:09.509Z,12.67
2022-10-03T06:40:48.784Z,12.67
2022-10-03T06:42:24.746Z,12.68
2022-10-03T06:43:57.062Z,12.68
2022-10-03T06:45:24.843Z,12.70
2022-10-03T06:46:48.089Z,12.73
2022-10-03T06:48:08.424Z,12.73
2022-10-03T06:49:48.885Z,12.74
2022-10-03T06:50:55.387Z,12.73
2022-10-03T06:52:19.435Z,12.75
2022-10-03T06:53:40.483Z,12.73
2022-10-03T06:55:17.937Z,12.72
2022-10-03T06:56:57.741Z,12.71
2022-10-03T06:58:20.127Z,12.71
2022-10-03T06:59:55.040Z,12.71
2022-10-03T07:01:20.104Z,12.72
2022-10-03T07:02:48.630Z,12.76
2022-10-03T07:04:07.906Z,12.80
2022-10-03T07:05:43.741Z,12.85
2022-10-03T07:07:10.963Z,12.91
2022-10-03T07:08:37.489Z,12.94
2022-10-03T07:10:05.613Z,13.00
2022-10-03T07:11:29.245Z,13.04
2022-10-03T07:12:53.857Z,13.11
2022-10-03T07:14:18.344Z,13.17
2022-10-03T07:16:26.028Z,13.23
2022-10-03T07:17:46.490Z,13.29
2022-10-03T07:19:40.620Z,13.32
2022-10-03T07:21:03.819Z,13.35
2022-10-03T07:22:48.735Z,13.36
2022-10-03T07:24:07.728Z,13.35
2022-10-03T07:25:33.087Z,13.35
2022-10-03T07:27:17.756Z,13.35
2022-10-03T07:28:48.402Z,13.34
2022-10-03T07:30:09.540Z,13.34
2022-10-03T07:31:23.493Z,13.36
2022-10-03T07:32:41.850Z,13.37
2022-10-03T07:34:29.630Z,13.40
2022-10-03T07:36:08.775Z,13.41
2022-10-03T07:37:46.710Z,13.44
2022-10-03T07:39:12.227Z,13.47
2022-10-03T07:40:50.863Z,13.49
2022-10-03T07:42:22.147Z,13.49
2022-10-03T07:44:00.788Z,13.50
2022-10-03T07:45:42.084Z,13.54
2022-10-03T07:47:11.114Z,13.55
2022-10-03T07:48:36.507Z,13.57
2022-10-03T07:50:31.103Z,13.58
2022-10-03T07:51:45.011Z,13.58
2022-10-03T07:53:01.000Z,13.58
2022-10-03T07:54:30.091Z,13.57
2022-10-03T07:55:52.387Z,13.57
2022-10-03T07:57:24.591Z,13.57
2022-10-03T07:58:58.684Z,13.57
2022-10-03T08:00:10.732Z,13.59
2022-10-03T08:01:52.373Z,13.61
2022-10-03T08:03:33.300Z,13.63
2022-10-03T08:05:03.997Z,13.62
2022-10-03T08:06:21.039Z,13.59
2022-10-03T08:07:52.196Z,13.56
2022-10-03T08:09:28.968Z,13.53
2022-10-03T08:11:04.333Z,13.51
2022-10-03T08:12:29.863Z,13.47
2022-10-03T08:13:43.516Z,13.45
2022-10-03T08:14:57.944Z,13.42
2022-10-03T08:16:13.219Z,13.40
2022-10-03T08:18:09.830Z,13.41
2022-10-03T08:19:28.720Z,13.44
2022-10-03T08:20:41.794Z,13.46
2022-10-03T08:21:59.489Z,13.48
2022-10-03T08:23:23.704Z,13.47
2022-10-03T08:24:56.607Z,13.47
2022-10-03T08:26:17.020Z,13.48
2022-10-03T08:27:43.941Z,13.49
2022-10-03T08:29:22.725Z,13.52
2022-10-03T08:30:27.654Z,13.53
2022-10-03T08:31:49.658Z,13.56
2022-10-03T08:33:07.383Z,13.58
2022-10-03T08:34:38.418Z,13.60
2022-10-03T08:36:32.815Z,13.65
2022-10-03T08:38:05.705Z,13.70
2022-10-03T08:39:13.911Z,13.77
2022-10-03T08:40:57.002Z,13.83
2022-10-03T08:42:27.154Z,13.89
2022-10-03T08:44:03.170Z,13.92
2022-10-03T08:45:35.139Z,13.96
2022-10-03T08:47:07.240Z,13.97
2022-10-03T08:48:46.146Z,13.98
2022-10-03T08:50:36.463Z,13.98
2022-10-03T08:52:05.425Z,13.99
2022-10-03T08:53:44.237Z,14.00
2022-10-03T08:55:10.048Z,14.04
2022-10-03T08:56:17.611Z,14.07
2022-10-03T08:57:38.186Z,14.08
2022-10-03T08:59:28.625Z,14.10
2022-10-03T09:00:47.824Z,14.11
2022-10-03T09:02:37.404Z,14.13
2022-10-03T09:04:26.319Z,14.15
2022-10-03T09:08:24.994Z,14.22
2022-10-03T09:09:56.637Z,14.24
2022-10-03T09:11:23.901Z,14.27
2022-10-03T09:12:47.833Z,14.30
2022-10-03T09:14:18.983Z,14.31
2022-10-03T09:15:53.394Z,14.33
2022-10-03T09:17:09.309Z,14.36
2022-10-03T09:18:36.081Z,14.39
2022-10-03T09:20:11.939Z,14.42
2022-10-03T09:21:38.926Z,14.43
2022-10-03T09:23:13.451Z,14.44
2022-10-03T09:24:49.047Z,14.44
2022-10-03T09:26:09.166Z,14.47
2022-10-03T09:30:32.283Z,14.50
2022-10-03T09:32:09.762Z,14.54
2022-10-03T09:33:50.890Z,14.56
2022-10-03T09:35:26.956Z,14.59
2022-10-03T09:37:13.683Z,14.62
2022-10-03T09:38:45.248Z,14.66
2022-10-03T09:40:19.507Z,14.67
2022-10-03T09:42:21.976Z,14.68
2022-10-03T09:43:54.509Z,14.72
2022-10-03T09:45:28.162Z,14.76
2022-10-03T09:47:09.121Z,14.79
2022-10-03T09:48:27.008Z,14.83
2022-10-03T09:49:48.248Z,14.85
2022-10-03T09:51:06.222Z,14.89
2022-10-03T09:52:42.795Z,14.93
2022-10-03T09:54:23.689Z,14.96
2022-10-03T09:55:41.558Z,15.01
2022-10-03T09:57:09.922Z,15.06
2022-10-03T09:58:40.882Z,15.09
2022-10-03T10:01:15.389Z,15.20
2022-10-03T10:02:47.486Z,15.24
2022-10-03T10:04:53.128Z,15.29
2022-10-03T10:06:08.373Z,15.36
2022-10-03T10:07:41.351Z,15.43
2022-10-03T10:09:02.066Z,15.49
2022-10-03T10:10:31.905Z,15.53
2022-10-03T10:12:00.043Z,15.58
2022-10-03T10:13:18.041Z,15.65
2022-10-03T10:14:45.149Z,15.70
2022-10-03T10:16:10.318Z,15.75
2022-10-03T10:17:45.882Z,15.81
2022-10-03T10:19:16.148Z,15.86
2022-10-03T10:20:32.873Z,15.91
2022-10-03T10:21:53.520Z,15.98
2022-10-03T10:23:11.908Z,16.06
2022-10-03T10:24:46.409Z,16.13
2022-10-03T10:26:25.317Z,16.19
2022-10-03T10:28:05.833Z,16.24
2022-10-03T10:29:22.870Z,16.32
2022-10-03T10:30:55.154Z,16.37
2022-10-03T10:32:30.909Z,16.45
2022-10-03T10:34:20.224Z,16.55
2022-10-03T10:36:10.664Z,16.60
2022-10-03T10:37:54.077Z,16.63
2022-10-03T10:39:28.832Z,16.66
2022-10-03T10:40:53.854Z,16.68
2022-10-03T10:42:56.688Z,16.69
2022-10-03T10:44:36.575Z,16.70
2022-10-03T10:45:46.765Z,16.71
2022-10-03T10:47:23.436Z,16.73
2022-10-03T10:49:07.427Z,16.75
2022-10-03T10:50:32.056Z,16.77
2022-10-03T10:52:13.900Z,16.79
2022-10-03T10:53:53.580Z,16.82
2022-10-03T10:55:23.750Z,16.85
2022-10-03T10:57:01.755Z,16.87
2022-10-03T10:58:53.058Z,16.87
2022-10-03T11:00:16.107Z,16.89
2022-10-03T11:01:46.755Z,16.90
2022-10-03T11:03:28.810Z,16.89
2022-10-03T11:05:10.427Z,16.88
2022-10-03T11:06:53.889Z,16.87
2022-10-03T11:08:38.301Z,16.90
2022-10-03T11:10:16.420Z,16.92
2022-10-03T11:11:59.623Z,16.95
2022-10-03T11:13:37.455Z,16.99
2022-10-03T11:15:15.031Z,17.04
2022-10-03T11:17:01.203Z,17.09
2022-10-03T11:18:44.507Z,17.12
2022-10-03T11:20:22.713Z,17.14
2022-10-03T11:22:08.927Z,17.17
2022-10-03T11:23:57.526Z,17.19
2022-10-03T11:25:40.991Z,17.18
2022-10-03T11:27:28.877Z,17.17
2022-10-03T11:29:21.741Z,17.18
2022-10-03T11:31:07.759Z,17.22
2022-10-03T11:32:37.176Z,17.25
2022-10-03T11:34:17.728Z,17.28
2022-10-03T11:35:53.865Z,17.30
2022-10-03T11:37:09.149Z,17.31
2022-10-03T11:38:20.032Z,17.34
2022-10-03T11:39:32.066Z,17.38
2022-10-03T11:40:49.547Z,17.40
2022-10-03T11:42:02.067Z,17.42
2022-10-03T11:43:33.038Z,17.43
2022-10-03T11:44:42.652Z,17.44
2022-10-03T11:45:51.434Z,17.42
2022-10-03T11:47:17.122Z,17.40
2022-10-03T11:48:39.721Z,17.37
2022-10-03T11:50:19.755Z,17.36
2022-10-03T11:51:37.931Z,17.36
2022-10-03T11:52:58.439Z,17.37
2022-10-03T11:54:30.588Z,17.38
2022-10-03T11:55:44.087Z,17.38
2022-10-03T11:56:51.743Z,17.40
2022-10-03T11:58:11.072Z,17.40
2022-10-03T12:00:00.953Z,17.37
2022-10-03T12:01:19.778Z,17.35
2022-10-03T12:02:41.933Z,17.33
2022-10-03T12:03:53.574Z,17.32
2022-10-03T12:05:00.636Z,17.32
2022-10-03T12:06:40.259Z,17.32
2022-10-03T12:08:08.272Z,17.30
2022-10-03T12:09:17.089Z,17.28
2022-10-03T12:10:39.037Z,17.26
2022-10-03T12:11:53.624Z,17.26
2022-10-03T12:12:57.987Z,17.24
2022-10-03T12:14:13.045Z,17.24
2022-10-03T12:15:27.411Z,17.21
2022-10-03T12:16:39.086Z,17.21
2022-10-03T12:17:46.733Z,17.18
2022-10-03T12:19:05.306Z,17.18
2022-10-03T12:20:18.286Z,17.18
2022-10-03T12:21:25.276Z,17.18
2022-10-03T12:22:43.489Z,17.16
2022-10-03T12:24:02.751Z,17.14
2022-10-03T12:25:19.099Z,17.11
2022-10-03T12:26:28.802Z,17.11
2022-10-03T12:27:42.547Z,17.10
2022-10-03T12:28:50.766Z,17.10
2022-10-03T12:29:58.649Z,17.10
2022-10-03T12:31:13.967Z,17.08
2022-10-03T12:32:29.589Z,17.05
2022-10-03T12:33:47.879Z,17.06
2022-10-03T12:35:02.602Z,17.03
2022-10-03T12:37:25.502Z,17.05
2022-10-03T12:38:56.355Z,17.05
2022-10-03T12:40:06.465Z,17.08
2022-10-03T12:41:22.337Z,17.11
2022-10-03T12:42:29.183Z,17.14
2022-10-03T12:43:46.972Z,17.19
2022-10-03T12:44:56.113Z,17.23
2022-10-03T12:46:02.370Z,17.28
2022-10-03T12:47:37.620Z,17.32
2022-10-03T12:48:51.703Z,17.33
2022-10-03T12:50:00.119Z,17.36
2022-10-03T12:51:09.503Z,17.40
2022-10-03T12:52:19.106Z,17.42
2022-10-03T12:53:31.136Z,17.46
2022-10-03T12:54:48.205Z,17.47
2022-10-03T12:56:02.769Z,17.50
2022-10-03T12:57:35.294Z,17.53
2022-10-03T12:58:51.415Z,17.55
2022-10-03T13:00:02.999Z,17.55
2022-10-03T13:01:16.835Z,17.57
2022-10-03T13:02:27.775Z,17.60
2022-10-03T13:03:44.400Z,17.60
2022-10-03T13:05:02.369Z,17.64
2022-10-03T13:06:44.450Z,17.60
2022-10-03T13:07:53.905Z,17.59
2022-10-03T13:09:11.836Z,17.57
2022-10-03T13:10:29.317Z,17.60
2022-10-03T13:11:42.539Z,17.65
2022-10-03T13:12:50.966Z,17.69
2022-10-03T13:14:07.623Z,17.75
2022-10-03T13:15:58.985Z,17.79
2022-10-03T13:17:12.003Z,17.86
2022-10-03T13:18:27.647Z,17.89
2022-10-03T13:19:40.608Z,17.91
2022-10-03T13:20:53.396Z,17.92
2022-10-03T13:22:06.100Z,17.93
2022-10-03T13:23:20.328Z,17.94
2022-10-03T13:24:32.975Z,17.96
2022-10-03T13:25:45.247Z,17.95
2022-10-03T13:26:55.693Z,17.94
2022-10-03T13:28:05.420Z,17.92
2022-10-03T13:29:20.575Z,17.91
2022-10-03T13:30:27.014Z,17.91
2022-10-03T13:31:32.213Z,17.90
2022-10-03T13:32:42.414Z,17.90
2022-10-03T13:33:46.918Z,17.90
2022-10-03T13:35:23.169Z,17.90
2022-10-03T13:36:32.188Z,17.89
2022-10-03T13:37:58.024Z,17.89
2022-10-03T13:39:18.052Z,17.87
2022-10-03T13:40:20.095Z,17.87
2022-10-03T13:41:35.542Z,17.86
2022-10-03T13:42:42.226Z,17.85
2022-10-03T13:43:50.589Z,17.87
2022-10-03T13:44:56.624Z,17.87
2022-10-03T13:46:02.338Z,17.85
2022-10-03T13:47:20.695Z,17.84
2022-10-03T13:48:27.406Z,17.83
2022-10-03T13:49:34.423Z,17.80
2022-10-03T13:50:46.983Z,17.79
2022-10-03T13:51:58.619Z,17.77
2022-10-03T13:53:06.694Z,17.76
2022-10-03T13:54:15.861Z,17.74
2022-10-03T13:55:30.263Z,17.74
2022-10-03T13:56:45.350Z,17.72
2022-10-03T13:58:03.398Z,17.70
2022-10-03T13:59:16.897Z,17.71
2022-10-03T14:00:21.962Z,17.69
2022-10-03T14:01:38.346Z,17.68
2022-10-03T14:02:52.150Z,17.69
2022-10-03T14:04:15.920Z,17.69
2022-10-03T14:05:44.686Z,17.68
2022-10-03T14:06:55.295Z,17.71
2022-10-03T14:08:08.661Z,17.72
2022-10-03T14:09:38.030Z,17.73
2022-10-03T14:11:05.247Z,17.72
2022-10-03T14:12:33.043Z,17.72
2022-10-03T14:13:56.706Z,17.70
2022-10-03T14:15:18.931Z,17.70
2022-10-03T14:16:27.443Z,17.72
2022-10-03T14:17:41.176Z,17.74
2022-10-03T14:18:53.429Z,17.77
2022-10-03T14:20:10.272Z,17.78
2022-10-03T14:21:37.522Z,17.78
2022-10-03T14:22:52.240Z,17.77
2022-10-03T14:24:07.150Z,17.77
2022-10-03T14:25:34.522Z,17.73
2022-10-03T14:26:42.996Z,17.73
2022-10-03T14:27:52.917Z,17.72
2022-10-03T14:29:03.403Z,17.72
2022-10-03T14:30:10.026Z,17.73
2022-10-03T14:31:24.186Z,17.75
2022-10-03T14:32:46.791Z,17.75
2022-10-03T14:33:58.951Z,17.76
2022-10-03T14:35:11.172Z,17.75
2022-10-03T14:36:31.470Z,17.74
2022-10-03T14:37:40.712Z,17.74
2022-10-03T14:39:05.266Z,17.74
2022-10-03T14:40:16.844Z,17.73
2022-10-03T14:41:23.546Z,17.73
2022-10-03T14:42:41.164Z,17.72
2022-10-03T14:43:50.501Z,17.72
2022-10-03T14:44:56.414Z,17.69
2022-10-03T14:46:02.588Z,17.69
2022-10-03T14:47:11.202Z,17.70
2022-10-03T14:48:17.225Z,17.70
2022-10-03T14:49:52.406Z,17.72
2022-10-03T14:50:54.648Z,17.71
2022-10-03T14:52:02.094Z,17.72
2022-10-03T14:53:10.861Z,17.73
2022-10-03T14:54:20.516Z,17.75
2022-10-03T14:55:30.378Z,17.75
2022-10-03T14:56:35.687Z,17.75
2022-10-03T14:58:08.739Z,17.75
2022-10-03T14:59:14.268Z,17.72
2022-10-03T15:00:33.255Z,17.71
2022-10-03T15:01:35.980Z,17.71
2022-10-03T15:02:44.733Z,17.70
2022-10-03T15:03:59.010Z,17.72
2022-10-03T15:05:08.582Z,17.71
2022-10-03T15:06:35.595Z,17.72
2022-10-03T15:07:40.589Z,17.73
2022-10-03T15:08:45.543Z,17.76
2022-10-03T15:09:54.228Z,17.77
2022-10-03T15:10:56.840Z,17.77
2022-10-03T15:12:03.029Z,17.78
2022-10-03T15:13:09.480Z,17.80
2022-10-03T15:14:12.092Z,17.80
2022-10-03T15:15:19.009Z,17.81
2022-10-03T15:16:22.424Z,17.81
2022-10-03T15:17:28.974Z,17.83
2022-10-03T15:18:31.670Z,17.84
2022-10-03T15:19:40.296Z,17.84
2022-10-03T15:20:44.520Z,17.84
2022-10-03T15:21:49.666Z,17.84
2022-10-03T15:22:53.482Z,17.85
2022-10-03T15:23:59.947Z,17.87
2022-10-03T15:25:09.750Z,17.87
2022-10-03T15:26:17.329Z,17.87
2022-10-03T15:27:22.514Z,17.88
2022-10-03T15:28:31.597Z,17.89
2022-10-03T15:29:34.548Z,17.91
2022-10-03T15:30:39.560Z,17.90
2022-10-03T15:31:45.675Z,17.89
2022-10-03T15:32:49.718Z,17.87
2022-10-03T15:33:53.450Z,17.86
2022-10-03T15:35:00.553Z,17.86
2022-10-03T15:36:11.187Z,17.84
2022-10-03T15:37:19.088Z,17.83
2022-10-03T15:38:26.120Z,17.81
2022-10-03T15:39:31.287Z,17.82
2022-10-03T15:40:39.105Z,17.83
2022-10-03T15:41:52.161Z,17.82
2022-10-03T15:43:07.802Z,17.82
2022-10-03T15:44:19.488Z,17.79
2022-10-03T15:45:27.427Z,17.79
2022-10-03T15:46:35.400Z,17.78
2022-10-03T15:47:44.113Z,17.73
2022-10-03T15:48:52.281Z,17.75
2022-10-03T15:49:59.517Z,17.74
2022-10-03T15:51:04.260Z,17.74
2022-10-03T15:52:15.971Z,17.74
2022-10-03T15:53:36.029Z,17.72
2022-10-03T15:54:39.292Z,17.71
2022-10-03T15:55:50.169Z,17.71
2022-10-03T15:56:57.157Z,17.69
2022-10-03T15:58:02.168Z,17.69
2022-10-03T15:59:09.619Z,17.68
2022-10-03T16:00:22.342Z,17.68
2022-10-03T16:01:28.712Z,17.66
2022-10-03T16:05:01.283Z,17.66
2022-10-03T16:06:09.136Z,17.64
2022-10-03T16:08:30.349Z,17.60
2022-10-03T16:09:41.451Z,17.61
2022-10-03T16:10:54.320Z,17.58
2022-10-03T16:13:23.840Z,17.54
2022-10-03T16:14:30.209Z,17.51
2022-10-03T16:17:55.574Z,17.47
2022-10-03T16:19:21.409Z,17.44
2022-10-03T16:20:27.913Z,17.42
2022-10-03T16:21:41.433Z,17.40
2022-10-03T16:22:49.646Z,17.38
2022-10-03T16:23:56.816Z,17.36
2022-10-03T16:25:06.046Z,17.35
2022-10-03T16:26:18.694Z,17.33
2022-10-03T16:27:24.596Z,17.30
2022-10-03T16:28:35.001Z,17.29
2022-10-03T16:29:39.657Z,17.27
2022-10-03T16:30:46.702Z,17.26
2022-10-03T16:31:54.766Z,17.25
2022-10-03T16:33:04.767Z,17.25
2022-10-03T16:34:12.320Z,17.22
2022-10-03T16:35:28.552Z,17.22
2022-10-03T16:36:32.475Z,17.19
2022-10-03T16:37:39.738Z,17.20
2022-10-03T16:38:45.102Z,17.18
2022-10-03T16:39:55.340Z,17.16
2022-10-03T16:40:59.465Z,17.14
2022-10-03T16:47:11.824Z,16.98
2022-10-03T16:48:38.839Z,16.95
2022-10-03T16:50:04.091Z,16.91
2022-10-03T16:51:15.312Z,16.86
2022-10-03T16:52:21.165Z,16.85
2022-10-03T16:53:24.245Z,16.80
2022-10-03T16:54:31.577Z,16.80
2022-10-03T16:55:37.154Z,16.77
2022-10-03T16:56:45.063Z,16.76
2022-10-03T16:57:52.794Z,16.73
2022-10-03T16:59:06.592Z,16.71
2022-10-03T17:00:15.853Z,16.67
2022-10-03T17:01:28.283Z,16.64
2022-10-03T17:02:31.286Z,16.60
2022-10-03T17:03:41.916Z,16.59
2022-10-03T17:04:49.175Z,16.56
2022-10-03T17:05:58.659Z,16.54
2022-10-03T17:12:09.131Z,16.39
2022-10-03T17:13:16.582Z,16.37
2022-10-03T17:14:21.690Z,16.35
2022-10-03T17:15:27.879Z,16.32
2022-10-03T17:16:44.030Z,16.30
2022-10-03T17:17:53.608Z,16.27
2022-10-03T17:19:10.850Z,16.26
2022-10-03T17:20:19.052Z,16.22
2022-10-03T17:21:26.987Z,16.20
2022-10-03T17:22:36.988Z,16.19
2022-10-03T17:23:44.221Z,16.16
2022-10-03T17:24:52.788Z,16.13
2022-10-03T17:26:06.475Z,16.10
2022-10-03T17:27:16.581Z,16.08
2022-10-03T17:28:32.295Z,16.06
2022-10-03T17:29:42.104Z,16.04
2022-10-03T17:30:49.491Z,16.01
2022-10-03T17:32:01.178Z,15.99
2022-10-03T17:33:10.085Z,15.96
2022-10-03T17:34:16.848Z,15.93
2022-10-03T17:35:28.194Z,15.92
2022-10-03T17:36:59.751Z,15.88
2022-10-03T17:47:11.390Z,15.68
2022-10-03T17:48:19.286Z,15.67
2022-10-03T17:49:31.476Z,15.64
2022-10-03T17:50:39.287Z,15.63
2022-10-03T17:51:43.971Z,15.61
2022-10-03T17:52:48.619Z,15.60
2022-10-03T17:53:57.384Z,15.59